createdAt,value
2022-09-07T00:03:57.988Z,17.30
2022-09-07T00:09:03.393Z,17.30
2022-09-07T00:14:07.809Z,17.30
2022-09-07T00:19:10.676Z,17.30
2022-09-07T00:24:13.646Z,17.30
2022-09-07T00:29:16.575Z,17.20
2022-09-07T00:34:19.601Z,17.10
2022-09-07T00:39:22.367Z,17.10
2022-09-07T00:44:43.843Z,17.10
2022-09-07T00:49:54.626Z,17.00
2022-09-07T00:55:03.062Z,17.00
2022-09-07T01:00:07.385Z,16.80
2022-09-07T01:05:35.821Z,16.90
2022-09-07T01:10:39.525Z,16.90
2022-09-07T01:16:09.456Z,16.90
2022-09-07T01:21:22.136Z,16.90
2022-09-07T01:27:08.475Z,16.80
2022-09-07T01:32:26.641Z,16.80
2022-09-07T01:37:55.056Z,16.70
2022-09-07T01:43:16.893Z,16.70
2022-09-07T01:48:21.782Z,16.70
2022-09-07T01:53:50.840Z,16.70
2022-09-07T01:59:07.747Z,16.60
2022-09-07T02:04:20.786Z,16.60
2022-09-07T02:09:35.271Z,16.60
2022-09-07T02:14:44.029Z,16.50
2022-09-07T02:20:03.691Z,16.50
2022-09-07T02:25:09.418Z,16.50
2022-09-07T02:30:13.693Z,16.40
2022-09-07T02:35:17.127Z,16.40
2022-09-07T02:40:20.182Z,16.40
2022-09-07T02:45:23.331Z,16.30
2022-09-07T02:50:44.674Z,16.30
2022-09-07T02:56:34.026Z,16.30
2022-09-07T03:02:05.070Z,16.20
2022-09-07T03:07:55.513Z,16.20
2022-09-07T03:12:58.341Z,16.20
2022-09-07T03:18:01.186Z,16.20
2022-09-07T03:23:05.110Z,16.10
2022-09-07T03:28:08.314Z,16.10
2022-09-07T03:33:11.540Z,16.10
2022-09-07T03:38:14.477Z,16.10
2022-09-07T03:43:17.889Z,16.00
2022-09-07T03:48:20.699Z,16.10
2022-09-07T03:53:23.568Z,16.00
2022-09-07T03:58:28.335Z,16.10
2022-09-07T04:03:32.434Z,16.10
2022-09-07T04:08:37.515Z,16.10
2022-09-07T04:13:41.653Z,16.20
2022-09-07T04:18:45.339Z,16.30
2022-09-07T04:23:49.193Z,16.40
2022-09-07T04:28:53.033Z,16.50
2022-09-07T04:33:56.755Z,16.60
2022-09-07T04:39:02.725Z,16.70
2022-09-07T04:44:05.808Z,16.60
2022-09-07T04:49:12.121Z,16.70
2022-09-07T04:54:15.105Z,16.60
2022-09-07T04:59:18.166Z,16.70
2022-09-07T05:04:21.096Z,16.80
2022-09-07T05:09:24.015Z,16.90
2022-09-07T05:14:27.032Z,17.00
2022-09-07T05:19:29.835Z,17.10
2022-09-07T05:24:36.795Z,17.20
2022-09-07T05:35:02.595Z,17.60
2022-09-07T05:40:06.288Z,17.80
2022-09-07T05:45:10.785Z,18.00
2022-09-07T05:50:13.599Z,18.10
2022-09-07T05:55:29.488Z,18.30
2022-09-07T06:00:33.678Z,18.50
2022-09-07T06:05:36.562Z,18.60
2022-09-07T06:15:43.360Z,18.80
2022-09-07T06:20:46.483Z,18.90
2022-09-07T06:25:50.032Z,19.10
2022-09-07T06:30:52.879Z,19.20
2022-09-07T06:36:03.923Z,19.30
2022-09-07T06:52:04.677Z,19.70
2022-09-07T06:57:09.450Z,19.90
2022-09-07T07:02:15.095Z,20.00
2022-09-07T07:07:18.320Z,20.20
2022-09-07T07:17:22.713Z,20.50
2022-09-07T07:27:49.642Z,20.80
2022-09-07T07:32:53.085Z,20.90
2022-09-07T07:43:18.980Z,21.30
2022-09-07T07:48:21.988Z,21.80
2022-09-07T07:53:41.956Z,22.40
2022-09-07T07:58:48.049Z,22.70
2022-09-07T08:03:51.124Z,22.90
2022-09-07T08:08:56.038Z,22.90
2022-09-07T08:14:00.357Z,22.80
2022-09-07T08:19:03.445Z,22.80
2022-09-07T08:24:06.433Z,22.90
2022-09-07T08:29:09.164Z,23.00
2022-09-07T08:34:12.040Z,23.10
2022-09-07T08:39:14.763Z,23.20
2022-09-07T08:44:49.633Z,23.30
2022-09-07T08:50:02.173Z,23.50
2022-09-07T08:55:20.428Z,23.60
2022-09-07T09:00:23.776Z,23.80
2022-09-07T09:05:37.189Z,23.90
2022-09-07T09:10:58.204Z,24.10
2022-09-07T09:16:32.529Z,24.20
2022-09-07T09:21:35.775Z,24.40
2022-09-07T09:26:43.054Z,24.50
2022-09-07T09:31:47.479Z,24.60
2022-09-07T09:36:54.256Z,24.80
2022-09-07T09:42:20.531Z,25.10
2022-09-07T09:47:34.215Z,25.20
2022-09-07T09:52:46.401Z,25.30
2022-09-07T10:08:58.963Z,26.00
2022-09-07T10:14:01.873Z,26.30
2022-09-07T10:19:04.606Z,26.60
2022-09-07T10:24:07.351Z,26.90
2022-09-07T10:29:22.691Z,27.00
2022-09-07T10:34:43.428Z,27.00
2022-09-07T10:40:06.211Z,27.20
2022-09-07T10:46:03.736Z,27.40
2022-09-07T10:51:18.016Z,27.70
2022-09-07T10:56:33.321Z,28.10
2022-09-07T11:01:53.487Z,28.80
2022-09-07T11:07:59.064Z,29.60
2022-09-07T11:13:06.323Z,30.50
2022-09-07T11:18:14.534Z,31.30
2022-09-07T11:23:46.299Z,31.70
2022-09-07T11:34:45.207Z,32.10
2022-09-07T11:39:58.153Z,31.90
2022-09-07T11:45:31.418Z,31.70
2022-09-07T11:50:39.506Z,31.60
2022-09-07T11:55:47.337Z,31.30
2022-09-07T12:01:16.223Z,31.30
2022-09-07T12:06:27.210Z,31.20
2022-09-07T12:12:14.412Z,31.20
2022-09-07T12:17:26.680Z,31.10
2022-09-07T12:22:29.535Z,31.00
2022-09-07T12:27:32.851Z,30.90
2022-09-07T12:32:56.857Z,30.60
2022-09-07T12:38:19.238Z,30.20
2022-09-07T12:43:21.923Z,30.20
2022-09-07T12:48:52.217Z,30.20
2022-09-07T12:54:35.877Z,30.40
2022-09-07T13:00:11.627Z,30.60
2022-09-07T13:05:41.069Z,30.60
2022-09-07T13:10:44.516Z,30.40
2022-09-07T13:16:05.202Z,30.10
2022-09-07T13:21:08.068Z,30.00
2022-09-07T13:26:54.806Z,29.70
2022-09-07T13:32:17.674Z,29.50
2022-09-07T13:37:25.066Z,29.30
2022-09-07T13:42:33.719Z,29.20
2022-09-07T13:48:01.900Z,29.00
2022-09-07T13:53:44.600Z,29.00
2022-09-07T13:58:52.172Z,29.00
2022-09-07T14:04:09.508Z,29.20
2022-09-07T14:09:24.000Z,29.20
2022-09-07T14:14:33.258Z,29.30
2022-09-07T14:19:41.906Z,29.30
2022-09-07T14:25:01.913Z,29.30
2022-09-07T14:30:23.465Z,29.30
2022-09-07T14:35:33.911Z,29.20
2022-09-07T14:40:36.842Z,29.20
2022-09-07T14:45:39.911Z,29.30
2022-09-07T14:51:05.473Z,29.50
2022-09-07T14:56:35.912Z,29.60
2022-09-07T15:01:38.990Z,29.70
2022-09-07T15:12:09.616Z,30.20
2022-09-07T15:22:48.903Z,30.50
2022-09-07T15:27:51.826Z,30.40
2022-09-07T15:32:57.391Z,30.30
2022-09-07T15:38:02.270Z,30.20
2022-09-07T15:43:19.474Z,30.40
2022-09-07T15:48:27.553Z,30.50
2022-09-07T15:58:55.191Z,30.60
2022-09-07T16:03:59.073Z,30.50
2022-09-07T16:09:02.429Z,30.00
2022-09-07T16:14:05.346Z,29.50
2022-09-07T16:19:12.718Z,29.00
2022-09-07T16:24:17.408Z,28.70
2022-09-07T16:29:20.543Z,28.40
2022-09-07T16:34:23.295Z,28.10
2022-09-07T16:39:26.517Z,27.80
2022-09-07T16:44:29.455Z,27.60
2022-09-07T16:49:32.496Z,27.30
2022-09-07T16:54:35.828Z,27.10
2022-09-07T16:59:38.724Z,26.80
2022-09-07T17:04:41.631Z,26.60
2022-09-07T17:09:44.598Z,26.30
2022-09-07T17:14:47.420Z,26.00
2022-09-07T17:19:50.834Z,25.70
2022-09-07T17:24:55.538Z,25.40
2022-09-07T17:29:58.357Z,25.20
2022-09-07T17:35:01.347Z,25.10
2022-09-07T17:40:06.356Z,24.90
2022-09-07T17:45:11.541Z,24.70
2022-09-07T17:50:14.436Z,24.60
2022-09-07T17:55:17.337Z,24.40
2022-09-07T18:00:20.245Z,24.20
2022-09-07T18:05:22.982Z,24.00
2022-09-07T18:10:26.628Z,23.90
2022-09-07T18:15:29.747Z,23.80
2022-09-07T18:20:34.458Z,23.60
2022-09-07T18:25:37.748Z,23.60
2022-09-07T18:30:42.276Z,23.50
2022-09-07T18:35:47.268Z,23.40
2022-09-07T18:40:51.138Z,23.40
2022-09-07T18:46:00.105Z,23.30
2022-09-07T18:51:03.600Z,23.20
2022-09-07T18:56:15.737Z,23.10
2022-09-07T19:01:18.985Z,23.10
2022-09-07T19:06:24.639Z,23.00
2022-09-07T19:11:27.553Z,23.00
2022-09-07T19:16:31.597Z,22.90
2022-09-07T19:21:39.316Z,22.80
2022-09-07T19:26:48.271Z,22.70
2022-09-07T19:32:06.918Z,22.60
2022-09-07T19:37:12.653Z,22.60
2022-09-07T19:42:15.963Z,22.50
2022-09-07T19:47:19.446Z,22.50
2022-09-07T19:52:22.302Z,22.50
2022-09-07T19:57:25.130Z,22.50
2022-09-07T20:02:27.912Z,22.40
2022-09-07T20:07:30.759Z,22.30
2022-09-07T20:12:33.582Z,22.20
2022-09-07T20:17:37.634Z,22.20
2022-09-07T20:22:40.518Z,22.20
2022-09-07T20:27:43.807Z,22.30
2022-09-07T20:32:46.544Z,22.30
2022-09-07T20:37:49.543Z,22.20
2022-09-07T20:42:52.427Z,22.20
2022-09-07T20:47:55.278Z,22.20
2022-09-07T20:52:58.154Z,22.10
2022-09-07T20:58:00.885Z,22.00
2022-09-07T21:03:04.225Z,21.90
2022-09-07T21:08:07.216Z,21.80
2022-09-07T21:13:10.570Z,21.70
2022-09-07T21:18:16.894Z,21.70
2022-09-07T21:23:19.763Z,21.70
2022-09-07T21:28:23.418Z,21.70
2022-09-07T21:33:28.393Z,21.70
2022-09-07T21:38:31.163Z,21.60
2022-09-07T21:43:34.981Z,21.50
2022-09-07T21:48:38.158Z,21.30
2022-09-07T21:53:42.067Z,21.20
2022-09-07T21:58:44.953Z,21.10
2022-09-07T22:03:56.954Z,21.00
2022-09-07T22:09:00.910Z,21.00
2022-09-07T22:14:05.356Z,20.90
2022-09-07T22:19:08.165Z,20.80
2022-09-07T22:24:15.183Z,20.80
2022-09-07T22:29:17.975Z,20.70
2022-09-07T22:34:20.907Z,20.70
2022-09-07T22:39:23.739Z,20.60
2022-09-07T22:44:27.591Z,20.60
2022-09-07T22:49:30.351Z,20.50
2022-09-07T22:54:33.118Z,20.50
2022-09-07T22:59:35.942Z,20.40
2022-09-07T23:04:39.219Z,20.40
2022-09-07T23:09:42.256Z,20.30
2022-09-07T23:14:45.036Z,20.20
2022-09-07T23:19:48.121Z,20.20
2022-09-07T23:24:50.879Z,20.10
2022-09-07T23:29:53.558Z,20.00
2022-09-07T23:34:56.243Z,19.90
2022-09-07T23:39:59.038Z,19.90
2022-09-07T23:45:03.190Z,19.90
2022-09-07T23:50:07.052Z,19.80
2022-09-07T23:55:11.091Z,19.80
